Adnan Menderes International Airport Izmir TR
ICAO: LTBJ
IATA: ADB
Category: Large
Scheduled Services: Yes

Elevation: 412 ft
TransAlt. 10000 ft.

Airport Communications:
MENDERES APP:119.5
MENDERES APP:134.2
MENDERES ATIS:129.2
MENDERES GND:121.9
MENDERES RAMP:121.7
MENDERES TWR:118.1

LTBJ Zoom In..

If you have problems with the map follow the link
https://www.worldairports.se/pages/airport.php?
ICAO=LTBJ

Runways:

(A) RW 16L length 10630 ft width 148 ft
ILS 108.50 / hdg 163

(B) RW 16R length 10630 ft width 148 ft
---- / hdg 163

(C) RW 34L length 10630 ft width 148 ft
---- / hdg 343

(D) RW 34R length 10630 ft width 148 ft
ILS 110.30 / hdg 343

Location; LTBJ
Day. 22 / Time. 11.50 Zulu
* QNH: 1014
* Temperature: 23° c. 73.4°f.
* Wind from: 360° Speed 06 kn.
Dewpoint: 10° c.
Visibility: 10 km or more,
No clouds below 1,500 m.
No cumulonimbus, and no significant weather
fenomena in the aerodrome or its vicinity.
No significant changes expected in the near future.

LTBJ 221150Z 36006KT 320V020 CAVOK 23/10 Q1014 NOSIG


Wind From 360°
Speed 06 kn.

 
 
jpsmedia.com for Web Design worldairports.se 2018   terms of use